sensor_id;sensor_type;location;lat;lon;timestamp;P1;durP1;ratioP1;P2;durP2;ratioP2
64502;SDS011;50971;51.940;21.258;2024-03-02T00:08:55;27.30;;;15.60;;
64502;SDS011;50971;51.940;21.258;2024-03-02T00:19:03;29.70;;;18.00;;
64502;SDS011;50971;51.940;21.258;2024-03-02T00:29:07;26.00;;;12.40;;
64502;SDS011;50971;51.940;21.258;2024-03-02T00:39:15;27.70;;;13.00;;
64502;SDS011;50971;51.940;21.258;2024-03-02T00:49:20;32.20;;;16.60;;
64502;SDS011;50971;51.940;21.258;2024-03-02T00:59:23;29.70;;;15.80;;
64502;SDS011;50971;51.940;21.258;2024-03-02T01:09:25;28.90;;;14.80;;
64502;SDS011;50971;51.940;21.258;2024-03-02T01:19:27;37.00;;;18.10;;
64502;SDS011;50971;51.940;21.258;2024-03-02T01:29:29;30.20;;;14.30;;
64502;SDS011;50971;51.940;21.258;2024-03-02T01:39:30;34.20;;;16.60;;
64502;SDS011;50971;51.940;21.258;2024-03-02T01:49:32;32.80;;;17.10;;
64502;SDS011;50971;51.940;21.258;2024-03-02T01:59:35;27.50;;;12.80;;
64502;SDS011;50971;51.940;21.258;2024-03-02T02:09:37;31.40;;;15.70;;
64502;SDS011;50971;51.940;21.258;2024-03-02T02:19:40;28.60;;;12.80;;
64502;SDS011;50971;51.940;21.258;2024-03-02T02:29:42;31.90;;;14.20;;
64502;SDS011;50971;51.940;21.258;2024-03-02T02:39:44;29.70;;;15.00;;
64502;SDS011;50971;51.940;21.258;2024-03-02T02:49:48;28.30;;;15.10;;
64502;SDS011;50971;51.940;21.258;2024-03-02T02:59:49;29.90;;;14.90;;
64502;SDS011;50971;51.940;21.258;2024-03-02T03:09:51;24.60;;;12.30;;
64502;SDS011;50971;51.940;21.258;2024-03-02T03:19:53;24.00;;;11.20;;
64502;SDS011;50971;51.940;21.258;2024-03-02T03:29:56;25.10;;;12.10;;
64502;SDS011;50971;51.940;21.258;2024-03-02T03:39:58;26.00;;;12.10;;
64502;SDS011;50971;51.940;21.258;2024-03-02T03:50:00;27.90;;;14.20;;
64502;SDS011;50971;51.940;21.258;2024-03-02T04:00:03;31.20;;;15.10;;
64502;SDS011;50971;51.940;21.258;2024-03-02T04:10:12;35.10;;;15.50;;
64502;SDS011;50971;51.940;21.258;2024-03-02T04:20:14;30.60;;;15.90;;
64502;SDS011;50971;51.940;21.258;2024-03-02T04:30:16;27.30;;;11.90;;
64502;SDS011;50971;51.940;21.258;2024-03-02T04:40:18;26.30;;;13.10;;
64502;SDS011;50971;51.940;21.258;2024-03-02T04:50:19;24.80;;;10.90;;
64502;SDS011;50971;51.940;21.258;2024-03-02T05:00:21;28.00;;;14.30;;
64502;SDS011;50971;51.940;21.258;2024-03-02T05:10:23;22.80;;;11.50;;
64502;SDS011;50971;51.940;21.258;2024-03-02T05:20:25;25.70;;;11.50;;
64502;SDS011;50971;51.940;21.258;2024-03-02T05:30:27;30.50;;;13.80;;
64502;SDS011;50971;51.940;21.258;2024-03-02T05:40:29;28.10;;;14.00;;
64502;SDS011;50971;51.940;21.258;2024-03-02T05:50:30;20.50;;;11.20;;
64502;SDS011;50971;51.940;21.258;2024-03-02T06:00:32;25.10;;;10.20;;
64502;SDS011;50971;51.940;21.258;2024-03-02T06:10:35;22.10;;;10.30;;
64502;SDS011;50971;51.940;21.258;2024-03-02T06:20:36;18.30;;;8.70;;
64502;SDS011;50971;51.940;21.258;2024-03-02T07:01:41;22.90;;;12.00;;
64502;SDS011;50971;51.940;21.258;2024-03-02T07:11:43;14.50;;;7.80;;
64502;SDS011;50971;51.940;21.258;2024-03-02T07:21:45;20.90;;;10.00;;
64502;SDS011;50971;51.940;21.258;2024-03-02T07:31:47;21.80;;;11.00;;
64502;SDS011;50971;51.940;21.258;2024-03-02T07:41:48;26.60;;;12.10;;
64502;SDS011;50971;51.940;21.258;2024-03-02T07:51:50;27.10;;;12.20;;
64502;SDS011;50971;51.940;21.258;2024-03-02T08:01:52;22.80;;;11.60;;
64502;SDS011;50971;51.940;21.258;2024-03-02T08:11:54;20.70;;;11.10;;
64502;SDS011;50971;51.940;21.258;2024-03-02T08:21:56;21.10;;;10.40;;
64502;SDS011;50971;51.940;21.258;2024-03-02T08:31:57;20.80;;;11.20;;
64502;SDS011;50971;51.940;21.258;2024-03-02T08:41:59;22.30;;;11.60;;
64502;SDS011;50971;51.940;21.258;2024-03-02T08:52:01;21.10;;;11.60;;
64502;SDS011;50971;51.940;21.258;2024-03-02T09:02:03;25.50;;;12.30;;
64502;SDS011;50971;51.940;21.258;2024-03-02T09:12:06;21.40;;;11.20;;
64502;SDS011;50971;51.940;21.258;2024-03-02T09:22:08;21.90;;;11.70;;
64502;SDS011;50971;51.940;21.258;2024-03-02T09:32:14;21.60;;;11.30;;
64502;SDS011;50971;51.940;21.258;2024-03-02T09:42:16;23.90;;;12.80;;
64502;SDS011;50971;51.940;21.258;2024-03-02T09:52:18;21.90;;;11.20;;
64502;SDS011;50971;51.940;21.258;2024-03-02T10:02:19;27.50;;;13.40;;
64502;SDS011;50971;51.940;21.258;2024-03-02T10:12:21;24.00;;;12.60;;
64502;SDS011;50971;51.940;21.258;2024-03-02T10:22:23;26.30;;;13.70;;
64502;SDS011;50971;51.940;21.258;2024-03-02T10:32:25;23.60;;;12.20;;
64502;SDS011;50971;51.940;21.258;2024-03-02T10:42:27;23.20;;;13.60;;
64502;SDS011;50971;51.940;21.258;2024-03-02T10:52:29;25.30;;;14.40;;
64502;SDS011;50971;51.940;21.258;2024-03-02T11:02:31;30.30;;;16.70;;
64502;SDS011;50971;51.940;21.258;2024-03-02T11:12:36;30.50;;;16.20;;
64502;SDS011;50971;51.940;21.258;2024-03-02T11:22:40;29.90;;;15.50;;
64502;SDS011;50971;51.940;21.258;2024-03-02T11:32:42;30.70;;;16.70;;
64502;SDS011;50971;51.940;21.258;2024-03-02T11:42:44;31.50;;;16.90;;
64502;SDS011;50971;51.940;21.258;2024-03-02T11:52:46;27.50;;;15.90;;
64502;SDS011;50971;51.940;21.258;2024-03-02T12:03:10;20.60;;;13.30;;
64502;SDS011;50971;51.940;21.258;2024-03-02T12:13:11;28.70;;;15.30;;
64502;SDS011;50971;51.940;21.258;2024-03-02T12:23:13;26.10;;;15.00;;
64502;SDS011;50971;51.940;21.258;2024-03-02T12:33:17;26.50;;;15.20;;
64502;SDS011;50971;51.940;21.258;2024-03-02T12:43:20;29.10;;;16.40;;
64502;SDS011;50971;51.940;21.258;2024-03-02T12:53:21;26.10;;;15.90;;
64502;SDS011;50971;51.940;21.258;2024-03-02T13:13:44;33.70;;;17.90;;
64502;SDS011;50971;51.940;21.258;2024-03-02T13:23:46;28.80;;;15.90;;
64502;SDS011;50971;51.940;21.258;2024-03-02T13:33:47;30.10;;;17.00;;
64502;SDS011;50971;51.940;21.258;2024-03-02T13:43:49;29.50;;;16.90;;
64502;SDS011;50971;51.940;21.258;2024-03-02T13:53:54;31.80;;;16.90;;
64502;SDS011;50971;51.940;21.258;2024-03-02T14:03:56;29.90;;;16.90;;
64502;SDS011;50971;51.940;21.258;2024-03-02T14:13:58;28.10;;;16.30;;
64502;SDS011;50971;51.940;21.258;2024-03-02T14:24:00;20.00;;;11.10;;
64502;SDS011;50971;51.940;21.258;2024-03-02T14:34:01;32.60;;;16.60;;
64502;SDS011;50971;51.940;21.258;2024-03-02T14:44:04;26.60;;;15.30;;
64502;SDS011;50971;51.940;21.258;2024-03-02T14:54:06;27.10;;;15.50;;
64502;SDS011;50971;51.940;21.258;2024-03-02T15:04:08;29.80;;;14.90;;
64502;SDS011;50971;51.940;21.258;2024-03-02T15:14:11;25.70;;;12.90;;
64502;SDS011;50971;51.940;21.258;2024-03-02T15:24:12;24.70;;;14.60;;
64502;SDS011;50971;51.940;21.258;2024-03-02T15:34:14;24.10;;;14.10;;
64502;SDS011;50971;51.940;21.258;2024-03-02T15:44:16;30.30;;;15.30;;
64502;SDS011;50971;51.940;21.258;2024-03-02T15:54:18;24.00;;;15.10;;
64502;SDS011;50971;51.940;21.258;2024-03-02T16:04:19;27.20;;;14.80;;
64502;SDS011;50971;51.940;21.258;2024-03-02T16:14:21;19.80;;;11.90;;
64502;SDS011;50971;51.940;21.258;2024-03-02T16:24:23;28.10;;;15.10;;
64502;SDS011;50971;51.940;21.258;2024-03-02T16:45:01;27.40;;;15.20;;
64502;SDS011;50971;51.940;21.258;2024-03-02T16:55:03;31.90;;;16.80;;
64502;SDS011;50971;51.940;21.258;2024-03-02T17:05:06;26.20;;;13.60;;
64502;SDS011;50971;51.940;21.258;2024-03-02T17:15:08;29.20;;;16.20;;
64502;SDS011;50971;51.940;21.258;2024-03-02T17:25:10;31.40;;;15.10;;
64502;SDS011;50971;51.940;21.258;2024-03-02T17:35:12;24.50;;;13.10;;
64502;SDS011;50971;51.940;21.258;2024-03-02T17:45:14;23.40;;;11.50;;
64502;SDS011;50971;51.940;21.258;2024-03-02T17:55:16;20.10;;;11.20;;
64502;SDS011;50971;51.940;21.258;2024-03-02T18:05:18;21.90;;;11.80;;
64502;SDS011;50971;51.940;21.258;2024-03-02T18:15:20;26.00;;;14.30;;
64502;SDS011;50971;51.940;21.258;2024-03-02T18:25:21;23.80;;;11.80;;
64502;SDS011;50971;51.940;21.258;2024-03-02T18:35:23;28.40;;;13.60;;
64502;SDS011;50971;51.940;21.258;2024-03-02T18:45:25;27.00;;;15.30;;
64502;SDS011;50971;51.940;21.258;2024-03-02T18:55:27;31.00;;;15.40;;
64502;SDS011;50971;51.940;21.258;2024-03-02T19:05:29;33.00;;;16.40;;
64502;SDS011;50971;51.940;21.258;2024-03-02T19:15:30;31.50;;;15.80;;
64502;SDS011;50971;51.940;21.258;2024-03-02T19:25:32;30.90;;;16.10;;
64502;SDS011;50971;51.940;21.258;2024-03-02T19:35:34;22.50;;;12.80;;
64502;SDS011;50971;51.940;21.258;2024-03-02T19:45:36;26.90;;;14.20;;
64502;SDS011;50971;51.940;21.258;2024-03-02T19:55:38;21.00;;;13.30;;
64502;SDS011;50971;51.940;21.258;2024-03-02T20:05:41;26.50;;;13.50;;
64502;SDS011;50971;51.940;21.258;2024-03-02T20:15:43;26.10;;;13.70;;
64502;SDS011;50971;51.940;21.258;2024-03-02T20:25:45;15.40;;;8.80;;
64502;SDS011;50971;51.940;21.258;2024-03-02T20:35:47;14.00;;;7.60;;
64502;SDS011;50971;51.940;21.258;2024-03-02T20:45:49;19.00;;;11.00;;
64502;SDS011;50971;51.940;21.258;2024-03-02T20:55:51;17.20;;;10.10;;
64502;SDS011;50971;51.940;21.258;2024-03-02T21:05:53;22.80;;;12.00;;
64502;SDS011;50971;51.940;21.258;2024-03-02T21:15:55;19.10;;;10.70;;
64502;SDS011;50971;51.940;21.258;2024-03-02T21:25:58;20.80;;;12.00;;
64502;SDS011;50971;51.940;21.258;2024-03-02T21:36:00;16.20;;;7.40;;
64502;SDS011;50971;51.940;21.258;2024-03-02T21:46:02;22.00;;;11.40;;
64502;SDS011;50971;51.940;21.258;2024-03-02T21:56:03;18.90;;;9.90;;
64502;SDS011;50971;51.940;21.258;2024-03-02T22:06:07;21.50;;;11.30;;
64502;SDS011;50971;51.940;21.258;2024-03-02T22:16:08;20.60;;;12.60;;
64502;SDS011;50971;51.940;21.258;2024-03-02T22:26:10;16.70;;;9.30;;
64502;SDS011;50971;51.940;21.258;2024-03-02T22:36:12;15.00;;;7.70;;
64502;SDS011;50971;51.940;21.258;2024-03-02T22:46:14;21.80;;;10.60;;
64502;SDS011;50971;51.940;21.258;2024-03-02T22:56:16;17.20;;;9.00;;
64502;SDS011;50971;51.940;21.258;2024-03-02T23:06:18;17.90;;;9.50;;
64502;SDS011;50971;51.940;21.258;2024-03-02T23:16:21;22.60;;;11.20;;
64502;SDS011;50971;51.940;21.258;2024-03-02T23:26:23;21.20;;;11.50;;
64502;SDS011;50971;51.940;21.258;2024-03-02T23:36:26;20.80;;;11.70;;
64502;SDS011;50971;51.940;21.258;2024-03-02T23:46:28;20.60;;;10.70;;
64502;SDS011;50971;51.940;21.258;2024-03-02T23:56:34;17.40;;;8.80;;
